Schneifelwetter: Wetterstation Hallschlag, 537 m . NN
Wetterdaten: Donnerstag, 22.11.2012
Datum Zeit Temp. A. Feuchte A. Luftdruck Regen Wind Richtung Richtung Sonnenschein T Regen Taupunkt Windchill
22.11.2012 00:09 5,1 C 98 % 1017 hPa 0,0 l/m 20,8 km/h (4 Bft) W45 260 0 min 0 min 4,8 C -3,4 C
22.11.2012 00:24 4,9 C 98 % 1017 hPa 0,0 l/m 23,1 km/h (4 Bft) W45 260 0 min 0 min 4,6 C -4,4 C
22.11.2012 00:39 4,7 C 97 % 1018 hPa 0,0 l/m 19,4 km/h (3 Bft) W45 260 0 min 0 min 4,3 C -3,3 C
22.11.2012 00:54 4,5 C 97 % 1018 hPa 0,0 l/m 26,8 km/h (4 Bft) W22.5 260 0 min 0 min 4,1 C -6,2 C
22.11.2012 01:09 4,3 C 98 % 1018 hPa 0,0 l/m 25,2 km/h (4 Bft) W22.5 260 0 min 0 min 4,0 C -6,0 C
22.11.2012 01:24 4,4 C 98 % 1018 hPa 0,0 l/m 27,5 km/h (4 Bft) W-SW45 255 0 min 0 min 4,1 C -6,5 C
22.11.2012 01:39 4,5 C 98 % 1018 hPa 0,0 l/m 21,9 km/h (4 Bft) W-SW67.5 255 0 min 0 min 4,2 C -4,6 C
22.11.2012 01:54 4,5 C 98 % 1018 hPa 0,0 l/m 22,3 km/h (4 Bft) W-SW22.5 255 0 min 0 min 4,2 C -4,7 C
22.11.2012 02:09 4,4 C 97 % 1018 hPa 0,0 l/m 21,0 km/h (4 Bft) W22.5 260 0 min 0 min 4,0 C -4,3 C
22.11.2012 02:24 4,4 C 98 % 1018 hPa 0,0 l/m 15,8 km/h (3 Bft) W-SW22.5 255 0 min 0 min 4,1 C -2,1 C
22.11.2012 02:39 4,4 C 97 % 1019 hPa 0,0 l/m 12,7 km/h (3 Bft) W-SW22.5 250 0 min 0 min 4,0 C -0,4 C
22.11.2012 02:55 4,4 C 98 % 1019 hPa 0,0 l/m 16,0 km/h (3 Bft) SW45 235 0 min 0 min 4,1 C -2,2 C
22.11.2012 03:10 4,5 C 98 % 1019 hPa 0,0 l/m 19,3 km/h (3 Bft) W22.5 260 0 min 0 min 4,2 C -3,5 C
22.11.2012 03:25 4,5 C 98 % 1019 hPa 0,0 l/m 14,9 km/h (3 Bft) W-SW22.5 245 0 min 0 min 4,2 C -1,5 C
22.11.2012 03:40 4,6 C 98 % 1019 hPa 0,0 l/m 21,3 km/h (4 Bft) W-SW45 250 0 min 0 min 4,3 C -4,2 C
22.11.2012 03:55 4,6 C 98 % 1019 hPa 0,0 l/m 13,1 km/h (3 Bft) SW45 215 0 min 0 min 4,3 C -0,4 C
22.11.2012 04:10 4,6 C 98 % 1019 hPa 0,0 l/m 15,6 km/h (3 Bft) SW45 225 0 min 0 min 4,3 C -1,7 C
22.11.2012 04:25 4,6 C 98 % 1019 hPa 0,0 l/m 14,2 km/h (3 Bft) SW45 225 0 min 0 min 4,3 C -1,0 C
22.11.2012 04:40 4,6 C 98 % 1019 hPa 0,0 l/m 10,5 km/h (2 Bft) SW22.5 235 0 min 0 min 4,3 C 1,3 C
22.11.2012 04:55 4,6 C 98 % 1019 hPa 0,0 l/m 12,0 km/h (2 Bft) W-SW22.5 255 0 min 0 min 4,3 C 0,3 C
22.11.2012 05:10 4,6 C 98 % 1019 hPa 0,0 l/m 10,5 km/h (2 Bft) SW22.5 225 0 min 0 min 4,3 C 1,3 C
22.11.2012 05:25 4,6 C 98 % 1019 hPa 0,0 l/m 10,3 km/h (2 Bft) SW22.5 215 0 min 0 min 4,3 C 1,4 C
22.11.2012 05:40 4,5 C 98 % 1019 hPa 0,0 l/m 15,1 km/h (3 Bft) W-SW22.5 250 0 min 0 min 4,2 C -1,6 C
22.11.2012 05:55 4,5 C 98 % 1019 hPa 0,0 l/m 13,7 km/h (3 Bft) W-SW22.5 255 0 min 0 min 4,2 C -0,8 C
22.11.2012 06:10 4,4 C 98 % 1019 hPa 0,0 l/m 8,1 km/h (2 Bft) W-SW 255 0 min 0 min 4,1 C 2,9 C
22.11.2012 06:25 4,4 C 98 % 1019 hPa 0,0 l/m 9,5 km/h (2 Bft) SW22.5 215 0 min 0 min 4,1 C 1,8 C
22.11.2012 06:40 4,4 C 98 % 1019 hPa 0,0 l/m 13,5 km/h (3 Bft) W-SW45 245 0 min 0 min 4,1 C -0,8 C
22.11.2012 06:55 4,4 C 98 % 1020 hPa 0,0 l/m 12,7 km/h (3 Bft) W-SW22.5 250 0 min 0 min 4,1 C -0,4 C
22.11.2012 07:10 4,4 C 98 % 1020 hPa 0,0 l/m 16,5 km/h (3 Bft) W-SW22.5 255 0 min 0 min 4,1 C -2,4 C
22.11.2012 07:25 4,3 C 98 % 1020 hPa 0,0 l/m 25,3 km/h (4 Bft) W-SW45 250 0 min 0 min 4,0 C -6,0 C
22.11.2012 07:40 4,3 C 98 % 1020 hPa 0,0 l/m 10,4 km/h (2 Bft) SW22.5 230 0 min 0 min 4,0 C 1,0 C
22.11.2012 08:01 4,3 C 99 % 1020 hPa 0,0 l/m 10,8 km/h (2 Bft) S-SW45 210 0 min 0 min 4,2 C 0,7 C
22.11.2012 08:16 4,2 C 99 % 1020 hPa 0,0 l/m 13,3 km/h (3 Bft) S-SW45 210 0 min 0 min 4,1 C -1,0 C
22.11.2012 08:30 4,3 C 99 % 1020 hPa 0,0 l/m 14,0 km/h (3 Bft) SW22.5 215 0 min 0 min 4,2 C -1,2 C
22.11.2012 08:45 4,3 C 99 % 1020 hPa 0,0 l/m 13,3 km/h (3 Bft) SW22.5 215 0 min 0 min 4,2 C -0,8 C
22.11.2012 09:00 4,2 C 99 % 1020 hPa 0,0 l/m 11,6 km/h (2 Bft) SW45 220 0 min 0 min 4,1 C 0,1 C
22.11.2012 09:15 4,3 C 99 % 1020 hPa 0,0 l/m 14,3 km/h (3 Bft) SW45 215 0 min 0 min 4,2 C -1,4 C
22.11.2012 09:31 4,1 C 98 % 1020 hPa 0,0 l/m 15,0 km/h (3 Bft) S-SW45 205 0 min 0 min 3,8 C -2,0 C
22.11.2012 09:46 4,2 C 98 % 1020 hPa 0,0 l/m 6,6 km/h (2 Bft) SW22.5 225 0 min 0 min 3,9 C 4,0 C
22.11.2012 10:00 4,7 C 98 % 1021 hPa 0,0 l/m 11,5 km/h (2 Bft) S45 180 0 min 0 min 4,4 C 0,7 C
22.11.2012 10:15 5,1 C 98 % 1021 hPa 0,0 l/m 12,3 km/h (3 Bft) S-SW45 195 0 min 0 min 4,8 C 0,7 C
22.11.2012 10:30 5,7 C 98 % 1021 hPa 0,0 l/m 13,3 km/h (3 Bft) SW67.5 220 0 min 0 min 5,4 C 0,8 C
22.11.2012 10:45 6,0 C 97 % 1021 hPa 0,0 l/m 20,3 km/h (4 Bft) W-SW45 250 0 min 0 min 5,6 C -2,0 C
22.11.2012 11:01 5,9 C 96 % 1021 hPa 0,0 l/m 18,3 km/h (3 Bft) SW45 220 0 min 0 min 5,3 C -1,3 C
22.11.2012 11:16 6,3 C 96 % 1021 hPa 0,0 l/m 15,5 km/h (3 Bft) W-SW45 250 0 min 0 min 5,7 C 0,4 C
22.11.2012 11:30 6,0 C 95 % 1021 hPa 0,0 l/m 20,9 km/h (4 Bft) SW45 215 0 min 0 min 5,3 C -2,2 C
22.11.2012 11:45 6,0 C 95 % 1021 hPa 0,0 l/m 16,1 km/h (3 Bft) S-SW45 205 0 min 0 min 5,3 C -0,2 C
22.11.2012 12:00 6,0 C 95 % 1021 hPa 0,0 l/m 20,0 km/h (4 Bft) S45 190 0 min 0 min 5,3 C -1,9 C
22.11.2012 12:15 6,0 C 94 % 1020 hPa 0,0 l/m 19,2 km/h (3 Bft) S-SW45 195 0 min 0 min 5,1 C -1,6 C
22.11.2012 12:31 6,2 C 93 % 1020 hPa 0,0 l/m 17,4 km/h (3 Bft) S-SW45 205 0 min 0 min 5,2 C -0,6 C
22.11.2012 12:46 6,2 C 93 % 1020 hPa 0,0 l/m 24,4 km/h (4 Bft) S-SW67.5 205 0 min 0 min 5,2 C -3,1 C
22.11.2012 13:00 6,3 C 93 % 1020 hPa 0,0 l/m 15,9 km/h (3 Bft) SW45 235 0 min 0 min 5,3 C 0,2 C
22.11.2012 13:15 6,0 C 93 % 1020 hPa 0,0 l/m 21,2 km/h (4 Bft) W-SW22.5 255 0 min 0 min 5,0 C -2,3 C
22.11.2012 13:30 6,0 C 93 % 1020 hPa 0,0 l/m 19,9 km/h (4 Bft) SW45 225 0 min 0 min 5,0 C -1,8 C
22.11.2012 13:46 6,0 C 92 % 1020 hPa 0,0 l/m 20,0 km/h (4 Bft) W-NW22.5 290 0 min 0 min 4,8 C -1,9 C
22.11.2012 14:01 5,8 C 91 % 1020 hPa 0,0 l/m 20,9 km/h (4 Bft) S-SW67.5 205 0 min 0 min 4,4 C -2,5 C
22.11.2012 14:16 5,3 C 91 % 1020 hPa 0,0 l/m 21,7 km/h (4 Bft) S45 185 0 min 0 min 4,0 C -3,4 C
22.11.2012 14:30 5,4 C 92 % 1020 hPa 0,0 l/m 17,5 km/h (3 Bft) S22.5 190 0 min 0 min 4,2 C -1,6 C
22.11.2012 14:45 5,5 C 92 % 1019 hPa 0,0 l/m 23,5 km/h (4 Bft) S22.5 190 0 min 0 min 4,3 C -3,8 C
22.11.2012 15:00 5,5 C 92 % 1019 hPa 0,0 l/m 17,2 km/h (3 Bft) S45 180 0 min 0 min 4,3 C -1,4 C
22.11.2012 15:16 5,1 C 91 % 1019 hPa 0,0 l/m 17,7 km/h (3 Bft) S22.5 175 0 min 0 min 3,8 C -2,1 C
22.11.2012 15:31 4,6 C 93 % 1019 hPa 0,0 l/m 18,3 km/h (3 Bft) S22.5 190 0 min 0 min 3,6 C -3,0 C
22.11.2012 15:45 4,6 C 93 % 1019 hPa 0,0 l/m 15,8 km/h (3 Bft) S-SW67.5 195 0 min 0 min 3,6 C -1,8 C
22.11.2012 16:00 4,2 C 92 % 1019 hPa 0,0 l/m 15,1 km/h (3 Bft) S45 175 0 min 0 min 3,0 C -1,9 C
22.11.2012 16:15 4,0 C 93 % 1019 hPa 0,0 l/m 17,9 km/h (3 Bft) S-SW67.5 205 0 min 0 min 3,0 C -3,6 C
22.11.2012 16:30 3,9 C 94 % 1019 hPa 0,0 l/m 20,6 km/h (4 Bft) S-SW67.5 205 0 min 0 min 3,0 C -4,8 C
22.11.2012 16:46 4,0 C 95 % 1019 hPa 0,0 l/m 14,5 km/h (3 Bft) S-SW45 205 0 min 0 min 3,3 C -1,9 C
22.11.2012 17:01 4,1 C 95 % 1019 hPa 0,0 l/m 16,7 km/h (3 Bft) SW45 225 0 min 0 min 3,4 C -2,9 C
22.11.2012 17:15 4,1 C 95 % 1019 hPa 0,0 l/m 20,6 km/h (4 Bft) SW22.5 230 0 min 0 min 3,4 C -4,6 C
22.11.2012 17:30 4,0 C 95 % 1019 hPa 0,0 l/m 17,8 km/h (3 Bft) S45 185 0 min 0 min 3,3 C -3,5 C
22.11.2012 17:45 3,9 C 95 % 1019 hPa 0,0 l/m 16,2 km/h (3 Bft) S-SW67.5 205 0 min 0 min 3,2 C -2,9 C
22.11.2012 18:00 3,9 C 95 % 1018 hPa 0,0 l/m 25,3 km/h (4 Bft) S45 180 0 min 0 min 3,2 C -6,5 C
22.11.2012 18:16 3,9 C 95 % 1018 hPa 0,0 l/m 22,9 km/h (4 Bft) SW45 215 0 min 0 min 3,2 C -5,7 C
22.11.2012 18:31 3,9 C 95 % 1019 hPa 0,0 l/m 13,5 km/h (3 Bft) SW67.5 230 0 min 0 min 3,2 C -1,4 C
22.11.2012 18:45 3,9 C 95 % 1019 hPa 0,0 l/m 16,3 km/h (3 Bft) S22.5 180 0 min 0 min 3,2 C -2,9 C
22.11.2012 19:00 3,9 C 95 % 1019 hPa 0,0 l/m 18,6 km/h (3 Bft) S-SW45 195 0 min 0 min 3,2 C -4,0 C
22.11.2012 19:15 3,9 C 95 % 1018 hPa 0,0 l/m 21,1 km/h (4 Bft) S-SW22.5 195 0 min 0 min 3,2 C -5,0 C
22.11.2012 19:30 3,8 C 95 % 1018 hPa 0,0 l/m 18,1 km/h (3 Bft) S-SW45 195 0 min 0 min 3,1 C -3,9 C
22.11.2012 19:46 3,6 C 94 % 1018 hPa 0,0 l/m 26,0 km/h (4 Bft) S-SW67.5 205 0 min 0 min 2,7 C -7,2 C
22.11.2012 20:01 3,5 C 94 % 1018 hPa 0,0 l/m 19,1 km/h (3 Bft) S-SW67.5 205 0 min 0 min 2,6 C -4,7 C
22.11.2012 20:15 3,4 C 94 % 1018 hPa 0,0 l/m 16,6 km/h (3 Bft) SW67.5 225 0 min 0 min 2,5 C -3,7 C
22.11.2012 20:30 3,3 C 95 % 1018 hPa 0,0 l/m 20,8 km/h (4 Bft) S-SW45 205 0 min 0 min 2,6 C -5,7 C
22.11.2012 20:45 3,4 C 95 % 1018 hPa 0,0 l/m 26,4 km/h (4 Bft) SW45 225 0 min 0 min 2,7 C -7,6 C
22.11.2012 21:00 3,5 C 96 % 1018 hPa 0,0 l/m 32,7 km/h (5 Bft) S-SW22.5 205 0 min 0 min 2,9 C -9,2 C
22.11.2012 21:16 3,5 C 96 % 1018 hPa 0,0 l/m 22,4 km/h (4 Bft) SW45 225 0 min 0 min 2,9 C -6,1 C
22.11.2012 21:31 3,5 C 96 % 1018 hPa 0,0 l/m 21,9 km/h (4 Bft) S-SW67.5 205 0 min 0 min 2,9 C -5,9 C
22.11.2012 21:45 3,5 C 96 % 1017 hPa 0,0 l/m 28,0 km/h (4 Bft) SW67.5 225 0 min 0 min 2,9 C -7,9 C
22.11.2012 22:00 3,5 C 96 % 1018 hPa 0,0 l/m 23,7 km/h (4 Bft) S-SW67.5 195 0 min 0 min 2,9 C -6,5 C
22.11.2012 22:15 3,3 C 95 % 1018 hPa 0,0 l/m 19,8 km/h (3 Bft) S-SW67.5 200 0 min 0 min 2,6 C -5,3 C
22.11.2012 22:30 3,2 C 96 % 1017 hPa 0,0 l/m 25,1 km/h (4 Bft) S45 185 0 min 0 min 2,6 C -7,4 C
22.11.2012 22:46 3,2 C 96 % 1017 hPa 0,0 l/m 20,4 km/h (4 Bft) S22.5 175 0 min 0 min 2,6 C -5,7 C
22.11.2012 23:01 3,2 C 96 % 1017 hPa 0,0 l/m 17,7 km/h (3 Bft) S-SW45 195 0 min 0 min 2,6 C -4,5 C
22.11.2012 23:15 3,3 C 97 % 1017 hPa 0,0 l/m 25,2 km/h (4 Bft) S45 175 0 min 0 min 2,9 C -7,3 C
22.11.2012 23:30 3,5 C 97 % 1017 hPa 0,0 l/m 18,1 km/h (3 Bft) S45 180 0 min 0 min 3,1 C -4,3 C
22.11.2012 23:45 3,6 C 97 % 1017 hPa 0,0 l/m 21,8 km/h (4 Bft) SW22.5 220 0 min 0 min 3,2 C -5,7 C
22.11.2012 23:55 3,7 C 97 % 1017 hPa 0,0 l/m 25,4 km/h (4 Bft) SW22.5 220 0 min 0 min 3,3 C -6,8 C
_ Min-Zeit 22:30 14:01 00:09 - 09:46 - - - - 20:15 21:00
Minimum _ 3,2 C 91 % 1017 hPa - 6,6 km/h (2 Bft) - - - - 2,5 C -9,2 C
_ Max-Zeit 11:16 08:01 10:00 00:09 21:00 - - 00:09 00:09 11:16 09:46
Maximum _ 6,3 C 99 % 1021 hPa 0,0 l/m 32,7 km/h
S-SW (5 Bft)
- - 0 min 0 min 5,7 C 4,0 C
Durchschnitt _ 4,5 C 96 % 1019 hPa #0,0 l/m 18,1 km/h (3 Bft) SW - #0 min. #0 min. 3,9 C -2,7 C